createdAt,value
2019-03-15T00:04:26.724Z,10.23
2019-03-15T00:09:34.922Z,9.47
2019-03-15T00:14:43.415Z,8.25
2019-03-15T00:19:51.624Z,8.56
2019-03-15T00:24:59.970Z,9.51
2019-03-15T00:30:08.137Z,7.83
2019-03-15T00:35:16.282Z,9.86
2019-03-15T00:40:24.477Z,12.46
2019-03-15T00:45:32.607Z,12.92
2019-03-15T00:50:40.810Z,9.89
2019-03-15T00:55:49.178Z,6.21
2019-03-15T01:00:57.480Z,6.99
2019-03-15T01:06:05.644Z,8.28
2019-03-15T01:11:14.020Z,6.05
2019-03-15T01:16:22.162Z,7.59
2019-03-15T01:21:30.414Z,7.51
2019-03-15T01:26:38.569Z,8.59
2019-03-15T01:31:46.820Z,11.14
2019-03-15T01:36:55.093Z,11.08
2019-03-15T01:42:03.809Z,10.27
2019-03-15T01:47:12.082Z,8.09
2019-03-15T01:52:20.471Z,11.86
2019-03-15T01:57:28.718Z,10.71
2019-03-15T02:02:36.917Z,9.28
2019-03-15T02:07:45.128Z,9.42
2019-03-15T02:12:53.485Z,6.62
2019-03-15T02:18:01.635Z,8.08
2019-03-15T02:23:10.100Z,9.36
2019-03-15T02:28:18.417Z,12.04
2019-03-15T02:33:26.769Z,12.17
2019-03-15T02:38:35.217Z,12.72
2019-03-15T02:43:43.373Z,11.61
2019-03-15T02:48:51.703Z,10.16
2019-03-15T02:54:00.859Z,9.79
2019-03-15T02:59:07.713Z,11.56
2019-03-15T03:04:16.025Z,11.82
2019-03-15T03:09:24.330Z,9.58
2019-03-15T03:14:32.717Z,10.20
2019-03-15T03:19:42.629Z,9.56
2019-03-15T03:24:51.156Z,9.31
2019-03-15T03:29:59.195Z,10.51
2019-03-15T03:35:09.579Z,10.99
2019-03-15T03:40:19.679Z,9.98
2019-03-15T03:45:23.435Z,10.19
2019-03-15T03:50:30.695Z,12.22
2019-03-15T03:55:38.992Z,10.26
2019-03-15T04:00:47.287Z,11.45
2019-03-15T04:05:58.076Z,10.96
2019-03-15T04:10:56.342Z,8.67
2019-03-15T04:16:04.617Z,11.22
2019-03-15T04:21:12.819Z,14.41
2019-03-15T04:26:21.101Z,12.99
2019-03-15T04:31:29.509Z,16.53
2019-03-15T04:36:37.865Z,19.46
2019-03-15T04:41:46.148Z,19.90
2019-03-15T04:46:54.530Z,21.01
2019-03-15T04:52:02.638Z,19.92
2019-03-15T04:57:11.378Z,21.30
2019-03-15T05:02:19.701Z,27.59
2019-03-15T05:07:28.100Z,27.14
2019-03-15T05:12:36.357Z,25.60
2019-03-15T05:17:45.768Z,24.91
2019-03-15T05:22:54.048Z,24.29
2019-03-15T05:28:02.315Z,20.50
2019-03-15T05:33:10.565Z,22.16
2019-03-15T05:38:18.870Z,22.73
2019-03-15T05:43:27.060Z,24.30
2019-03-15T05:48:35.717Z,24.17
2019-03-15T05:53:43.980Z,20.91
2019-03-15T05:58:52.297Z,17.75
2019-03-15T06:04:00.510Z,25.02
2019-03-15T06:09:08.857Z,25.89
2019-03-15T06:14:26.126Z,21.97
2019-03-15T06:19:24.328Z,21.63
2019-03-15T06:24:32.828Z,24.37
2019-03-15T06:29:41.201Z,22.43
2019-03-15T06:34:49.571Z,22.88
2019-03-15T06:39:58.026Z,28.80
2019-03-15T06:45:06.311Z,23.64
2019-03-15T06:50:14.526Z,24.31
2019-03-15T06:55:22.742Z,23.16
2019-03-15T07:00:30.975Z,23.32
2019-03-15T07:05:39.372Z,24.13
2019-03-15T07:10:47.705Z,23.79
2019-03-15T07:15:56.160Z,22.80
2019-03-15T07:21:04.433Z,18.55
2019-03-15T07:26:12.893Z,23.58
2019-03-15T07:31:22.254Z,22.74
2019-03-15T07:36:30.500Z,19.00
2019-03-15T07:41:39.350Z,22.19
2019-03-15T07:46:46.784Z,25.79
2019-03-15T07:51:55.193Z,21.71
2019-03-15T07:57:03.445Z,20.91
2019-03-15T08:02:11.849Z,20.03
2019-03-15T08:07:20.344Z,16.37
2019-03-15T08:12:28.846Z,19.82
2019-03-15T08:17:37.129Z,23.26
2019-03-15T08:22:45.539Z,20.03
2019-03-15T08:27:54.122Z,20.77
2019-03-15T08:33:10.146Z,18.62
2019-03-15T08:38:10.095Z,18.14
2019-03-15T08:43:18.500Z,21.19
2019-03-15T08:48:31.621Z,18.59
2019-03-15T08:53:36.531Z,17.22
2019-03-15T08:58:45.016Z,18.22
2019-03-15T09:03:53.402Z,19.07
2019-03-15T09:09:01.733Z,22.94
2019-03-15T09:14:10.103Z,21.74
2019-03-15T09:19:18.377Z,19.90
2019-03-15T09:24:26.804Z,17.95
2019-03-15T09:29:35.277Z,19.91
2019-03-15T09:34:43.880Z,17.06
2019-03-15T09:39:52.158Z,15.57
2019-03-15T09:45:00.606Z,15.44
2019-03-15T09:50:21.474Z,13.35
2019-03-15T09:55:16.655Z,13.68
2019-03-15T10:00:24.921Z,13.00
2019-03-15T10:05:33.232Z,13.35
2019-03-15T10:10:41.608Z,11.44
2019-03-15T10:15:50.184Z,12.26
2019-03-15T10:20:58.773Z,12.10
2019-03-15T10:26:07.128Z,13.63
2019-03-15T10:31:15.609Z,14.44
2019-03-15T10:36:24.139Z,12.13
2019-03-15T10:41:32.881Z,14.51
2019-03-15T10:46:42.156Z,15.52
2019-03-15T10:51:50.419Z,16.33
2019-03-15T10:56:59.529Z,17.42
2019-03-15T11:02:07.826Z,14.57
2019-03-15T11:07:16.506Z,18.45
2019-03-15T11:12:24.838Z,15.75
2019-03-15T11:17:33.297Z,17.02
2019-03-15T11:22:42.363Z,16.91
2019-03-15T11:27:50.596Z,19.80
2019-03-15T11:32:59.050Z,21.34
2019-03-15T11:38:07.832Z,19.26
2019-03-15T11:43:16.564Z,19.89
2019-03-15T11:48:24.972Z,18.19
2019-03-15T11:53:33.345Z,20.16
2019-03-15T11:58:41.610Z,16.81
2019-03-15T12:03:53.412Z,15.36
2019-03-15T12:08:58.282Z,16.77
2019-03-15T12:14:06.463Z,14.87
2019-03-15T12:19:14.775Z,14.50
2019-03-15T12:24:23.345Z,14.69
2019-03-15T12:29:31.740Z,13.08
2019-03-15T12:34:39.932Z,14.21
2019-03-15T12:39:48.630Z,10.55
2019-03-15T12:44:56.958Z,12.07
2019-03-15T12:50:05.550Z,9.26
2019-03-15T12:55:13.777Z,8.50
2019-03-15T13:00:23.056Z,8.42
2019-03-15T13:05:31.317Z,10.19
2019-03-15T13:10:41.104Z,9.54
2019-03-15T13:15:49.430Z,8.13
2019-03-15T13:20:58.047Z,7.43
2019-03-15T13:26:06.438Z,7.34
2019-03-15T13:31:14.888Z,5.94
2019-03-15T13:36:23.167Z,5.55
2019-03-15T13:41:31.752Z,8.87
2019-03-15T13:46:40.226Z,6.99
2019-03-15T13:51:48.860Z,9.23
2019-03-15T13:56:57.166Z,7.68
2019-03-15T14:02:07.825Z,6.75
2019-03-15T14:07:14.354Z,6.61
2019-03-15T14:12:23.064Z,7.31
2019-03-15T14:17:31.450Z,7.43
2019-03-15T14:22:39.959Z,8.51
2019-03-15T14:27:48.705Z,7.72
2019-03-15T14:32:57.666Z,8.48
2019-03-15T14:38:05.977Z,8.26
2019-03-15T14:43:14.814Z,8.50
2019-03-15T14:48:23.183Z,8.38
2019-03-15T14:53:31.781Z,8.08
2019-03-15T14:58:40.285Z,7.42
2019-03-15T15:03:48.852Z,9.41
2019-03-15T15:08:57.214Z,9.52
2019-03-15T15:14:06.038Z,10.75
2019-03-15T15:19:14.333Z,10.33
2019-03-15T15:24:22.798Z,9.85
2019-03-15T15:29:31.094Z,11.21
2019-03-15T15:34:39.682Z,11.10
2019-03-15T15:39:47.956Z,10.67
2019-03-15T15:44:56.842Z,11.39
2019-03-15T15:50:05.156Z,9.98
2019-03-15T15:55:14.544Z,12.17
2019-03-15T16:00:22.762Z,10.21
2019-03-15T16:05:31.410Z,12.33
2019-03-15T16:10:39.731Z,13.12
2019-03-15T16:15:48.588Z,12.84
2019-03-15T16:20:57.081Z,13.07
2019-03-15T16:26:06.047Z,13.62
2019-03-15T16:31:14.488Z,10.56
2019-03-15T16:36:23.580Z,11.04
2019-03-15T16:41:32.332Z,13.45
2019-03-15T16:46:41.840Z,14.06
2019-03-15T16:51:50.099Z,13.06
2019-03-15T16:56:59.524Z,13.86
2019-03-15T17:02:08.235Z,15.87
2019-03-15T17:07:16.635Z,12.81
2019-03-15T17:12:25.161Z,12.42
2019-03-15T17:17:34.168Z,15.47
2019-03-15T17:22:42.448Z,14.87
2019-03-15T17:27:50.895Z,14.12
2019-03-15T17:32:59.354Z,18.25
2019-03-15T17:38:07.993Z,14.02
2019-03-15T17:43:16.332Z,13.39
2019-03-15T17:48:24.704Z,13.83
2019-03-15T17:53:33.082Z,14.56
2019-03-15T17:58:41.762Z,17.77
2019-03-15T18:03:50.073Z,16.82
2019-03-15T18:08:58.693Z,17.00
2019-03-15T18:14:07.195Z,13.30
2019-03-15T18:19:15.975Z,14.32
2019-03-15T18:24:24.306Z,14.01
2019-03-15T18:29:33.025Z,13.87
2019-03-15T18:34:41.276Z,20.63
2019-03-15T18:39:50.093Z,16.09
2019-03-15T18:44:58.346Z,16.79
2019-03-15T18:50:06.958Z,15.82
2019-03-15T18:55:15.494Z,15.72
2019-03-15T19:00:24.403Z,17.90
2019-03-15T19:05:32.773Z,17.16
2019-03-15T19:10:41.519Z,13.57
2019-03-15T19:15:50.076Z,17.49
2019-03-15T19:20:58.526Z,18.06
2019-03-15T19:26:06.886Z,16.57
2019-03-15T19:31:15.351Z,17.03
2019-03-15T19:36:23.698Z,14.89
2019-03-15T19:41:32.347Z,15.76
2019-03-15T19:46:40.647Z,20.03
2019-03-15T19:51:49.125Z,11.98
2019-03-15T19:56:57.490Z,19.13
2019-03-15T20:02:06.086Z,17.36
2019-03-15T20:07:17.244Z,16.26
2019-03-15T20:12:15.846Z,18.42
2019-03-15T20:17:24.001Z,14.91
2019-03-15T20:22:32.558Z,17.12
2019-03-15T20:27:40.707Z,17.71
2019-03-15T20:32:49.164Z,20.62
2019-03-15T20:37:57.646Z,18.76
2019-03-15T20:43:06.050Z,18.20
2019-03-15T20:48:14.313Z,16.74
2019-03-15T20:53:22.829Z,16.45
2019-03-15T20:58:31.204Z,20.93
2019-03-15T21:03:40.303Z,18.04
2019-03-15T21:08:48.785Z,17.19
2019-03-15T21:13:57.470Z,18.51
2019-03-15T21:19:05.701Z,17.15
2019-03-15T21:24:14.230Z,16.84
2019-03-15T21:29:22.636Z,16.65
2019-03-15T21:34:30.946Z,18.57
2019-03-15T21:39:39.286Z,19.11
2019-03-15T21:44:47.576Z,18.42
2019-03-15T21:49:55.779Z,18.05
2019-03-15T21:55:04.206Z,19.12
2019-03-15T22:00:12.626Z,16.89
2019-03-15T22:05:21.022Z,21.11
2019-03-15T22:10:23.952Z,15.79
2019-03-15T22:15:22.671Z,17.59
2019-03-15T22:20:31.416Z,14.61
2019-03-15T22:25:39.894Z,18.04
2019-03-15T22:30:49.317Z,19.34
2019-03-15T22:35:57.650Z,18.39
2019-03-15T22:41:06.289Z,17.51
2019-03-15T22:46:14.789Z,18.89
2019-03-15T22:51:23.716Z,20.05
2019-03-15T22:56:33.121Z,20.03
2019-03-15T23:01:41.807Z,19.49
2019-03-15T23:06:50.132Z,16.77
2019-03-15T23:11:58.397Z,17.90
2019-03-15T23:17:06.761Z,18.95
2019-03-15T23:22:14.869Z,18.90
2019-03-15T23:27:23.081Z,14.98
2019-03-15T23:32:31.385Z,18.09
2019-03-15T23:37:39.840Z,19.00
2019-03-15T23:42:47.979Z,20.73
2019-03-15T23:47:56.180Z,17.13
2019-03-15T23:53:04.454Z,19.35
2019-03-15T23:58:12.745Z,17.66
